Time;durP1;ratioP1;P1;durP2;ratioP2;P2;SDS_P1;SDS_P2;PMS_P1;PMS_P2;Temp;Humidity;BMP_temperature;BMP_pressure;BME280_temperature;BME280_humidity;BME280_pressure;Samples;Min_cycle;Max_cycle;Signal;HPM_P1;HPM_P2
2021/05/07 00:01:23;;;;;;;9.28;5.17;;;;;;;9.03;50.12;100227.54;1756962;80;21174;-58
2021/05/07 00:03:52;;;;;;;8.95;5.22;;;;;;;8.99;50.64;100224.77;1763764;80;21579;-58
2021/05/07 00:06:20;;;;;;;13.72;6.28;;;;;;;8.98;50.62;100224.43;1752543;80;21224;-58
2021/05/07 00:08:48;;;;;;;11.35;6.03;;;;;;;8.98;50.69;100228.82;1746847;80;21129;-58
2021/05/07 00:14:04;;;;;;;10.78;6.25;;;;;;;9.01;50.87;100233.84;1781014;77;38417;-57
2021/05/07 00:16:32;;;;;;;13.10;6.15;;;;;;;9.18;51.08;100236.04;1744210;80;21587;-57
2021/05/07 00:19:04;;;;;;;11.18;6.25;;;;;;;9.39;51.73;100234.84;1771834;80;21053;-57
2021/05/07 00:21:34;;;;;;;10.68;6.10;;;;;;;9.34;51.70;100238.30;1745594;80;21183;-59
2021/05/07 00:24:02;;;;;;;13.55;6.25;;;;;;;9.29;52.02;100239.97;1770425;80;21549;-58
2021/05/07 00:26:30;;;;;;;11.63;5.72;;;;;;;9.25;52.28;100237.23;1773301;80;21145;-59
2021/05/07 00:28:59;;;;;;;13.75;5.67;;;;;;;9.23;52.84;100235.66;1772889;80;21168;-58
2021/05/07 00:31:26;;;;;;;10.72;6.33;;;;;;;9.17;52.96;100226.97;1747296;78;21976;-59
2021/05/07 00:33:54;;;;;;;14.60;5.78;;;;;;;9.06;53.06;100224.69;1721583;81;21196;-59
2021/05/07 00:36:22;;;;;;;10.38;6.37;;;;;;;8.95;53.30;100222.03;1739704;80;21159;-59
2021/05/07 00:38:49;;;;;;;10.15;5.72;;;;;;;8.86;53.38;100223.58;1719651;81;21192;-59
2021/05/07 00:41:17;;;;;;;11.70;5.45;;;;;;;8.78;53.83;100225.94;1725986;81;21208;-59
2021/05/07 00:43:45;;;;;;;13.15;7.05;;;;;;;8.71;54.21;100217.69;1718333;81;21375;-58
2021/05/07 00:46:13;;;;;;;13.58;6.42;;;;;;;8.65;54.58;100218.13;1722771;81;21622;-59
2021/05/07 00:48:42;;;;;;;9.73;6.20;;;;;;;8.59;54.84;100217.30;1713735;82;21187;-58
2021/05/07 00:51:10;;;;;;;11.78;5.85;;;;;;;8.54;54.99;100212.88;1722227;81;21136;-59
2021/05/07 00:53:37;;;;;;;10.72;6.20;;;;;;;8.48;55.24;100217.25;1719975;82;21147;-59
2021/05/07 00:56:05;;;;;;;13.88;6.03;;;;;;;8.44;55.49;100214.48;1692493;81;21192;-59
2021/05/07 00:58:33;;;;;;;12.65;5.55;;;;;;;8.38;56.17;100216.57;1711875;81;21579;-59
2021/05/07 01:01:01;;;;;;;10.32;5.10;;;;;;;8.34;56.40;100212.52;1710157;82;21169;-59
2021/05/07 01:03:29;;;;;;;17.00;5.65;;;;;;;8.31;56.45;100212.73;1684373;82;21171;-58
2021/05/07 01:05:59;;;;;;;12.37;5.58;;;;;;;8.26;56.47;100213.55;1700039;82;21180;-59
2021/05/07 01:08:27;;;;;;;13.43;5.25;;;;;;;8.22;56.67;100213.42;1689865;83;21178;-59
2021/05/07 01:10:56;;;;;;;12.40;5.45;;;;;;;8.17;56.87;100216.86;1718292;82;21208;-58
2021/05/07 01:13:25;;;;;;;13.43;6.22;;;;;;;8.13;57.08;100221.94;1709123;82;21238;-58
2021/05/07 01:15:54;;;;;;;7.80;4.65;;;;;;;8.09;57.25;100217.88;1770170;79;21655;-58
2021/05/07 01:18:24;;;;;;;9.50;5.25;;;;;;;8.04;57.12;100203.80;1759741;79;21712;-59
2021/05/07 01:20:52;;;;;;;11.95;5.60;;;;;;;7.96;56.97;100204.81;1731265;80;21548;-59
2021/05/07 01:23:20;;;;;;;8.88;4.97;;;;;;;7.87;57.00;100208.94;1761631;79;21180;-59
2021/05/07 01:25:49;;;;;;;9.13;5.37;;;;;;;7.79;57.29;100217.33;1754237;80;21164;-59
2021/05/07 01:28:17;;;;;;;9.25;5.30;;;;;;;7.73;57.50;100210.37;1734268;80;21580;-58
2021/05/07 01:30:48;;;;;;;10.23;4.92;;;;;;;7.68;57.41;100212.01;1753263;80;21160;-58
2021/05/07 01:33:18;;;;;;;11.10;4.87;;;;;;;7.65;57.18;100210.08;1766041;79;21619;-58
2021/05/07 01:35:49;;;;;;;10.90;5.80;;;;;;;7.59;56.85;100208.75;1752168;79;22291;-58
2021/05/07 01:38:18;;;;;;;9.50;5.08;;;;;;;7.55;56.72;100212.53;1731582;82;21215;-58
2021/05/07 01:40:48;;;;;;;10.60;5.28;;;;;;;7.50;56.81;100212.84;1764175;79;21176;-58
2021/05/07 01:43:16;;;;;;;11.03;5.40;;;;;;;7.47;56.70;100211.75;1756076;80;21184;-58
2021/05/07 01:45:47;;;;;;;11.05;5.45;;;;;;;7.46;56.34;100215.78;1766510;79;21902;-58
2021/05/07 01:48:17;;;;;;;10.30;5.15;;;;;;;7.43;56.12;100215.51;1697950;83;21216;-58
2021/05/07 01:50:47;;;;;;;8.78;5.17;;;;;;;7.41;55.97;100208.24;1761703;79;21101;-58
2021/05/07 01:53:15;;;;;;;13.83;5.33;;;;;;;7.37;56.12;100212.03;1758845;79;21188;-58
2021/05/07 01:55:46;;;;;;;12.70;5.97;;;;;;;7.34;56.37;100210.45;1763127;79;21133;-58
2021/05/07 01:58:17;;;;;;;10.32;4.90;;;;;;;7.33;56.58;100211.86;1764492;79;21911;-58
2021/05/07 02:00:47;;;;;;;9.43;5.47;;;;;;;7.31;56.68;100216.37;1677680;84;21188;-58
2021/05/07 02:03:16;;;;;;;10.80;5.12;;;;;;;7.28;57.08;100212.65;1736415;80;21210;-58
2021/05/07 02:05:52;;;;;;;11.43;4.90;;;;;;;7.25;57.33;100221.09;1744082;80;21217;-59
2021/05/07 02:08:20;;;;;;;9.55;4.28;;;;;;;7.22;57.41;100218.67;1758960;79;21119;-59
2021/05/07 02:10:49;;;;;;;8.55;4.37;;;;;;;7.25;57.41;100225.02;1760324;80;21156;-58
2021/05/07 02:13:16;;;;;;;9.93;4.60;;;;;;;7.30;57.65;100230.42;1739073;79;21208;-59
2021/05/07 02:15:46;;;;;;;10.78;4.75;;;;;;;7.33;57.83;100234.11;1754463;80;21185;-59
2021/05/07 02:18:15;;;;;;;7.75;4.42;;;;;;;7.33;58.05;100227.56;1758303;80;21110;-58
2021/05/07 02:20:46;;;;;;;7.17;4.25;;;;;;;7.32;58.17;100229.83;1762399;80;21159;-59
2021/05/07 02:23:14;;;;;;;10.00;5.53;;;;;;;7.34;58.47;100226.15;1757742;79;21377;-59
2021/05/07 02:25:42;;;;;;;8.73;4.20;;;;;;;7.36;58.67;100226.91;1756009;79;21130;-58
2021/05/07 02:28:12;;;;;;;6.90;3.90;;;;;;;7.42;58.52;100233.01;1754602;80;21164;-59
2021/05/07 02:30:40;;;;;;;9.95;4.47;;;;;;;7.58;58.37;100236.72;1761981;79;21141;-58
2021/05/07 02:33:07;;;;;;;9.30;4.83;;;;;;;7.73;58.07;100237.43;1739011;80;21607;-59
2021/05/07 02:35:36;;;;;;;8.55;4.35;;;;;;;7.85;57.90;100240.97;1763645;79;21213;-59
2021/05/07 02:38:04;;;;;;;8.55;4.72;;;;;;;7.92;57.90;100244.81;1764173;79;21196;-59
2021/05/07 02:40:33;;;;;;;10.50;5.58;;;;;;;7.98;57.65;100240.45;1766938;79;21141;-59
2021/05/07 02:43:00;;;;;;;9.18;4.70;;;;;;;8.00;57.41;100234.63;1733082;80;21142;-59
2021/05/07 02:45:30;;;;;;;9.20;5.17;;;;;;;8.03;57.60;100232.72;1766004;79;22268;-59
2021/05/07 02:47:57;;;;;;;10.40;4.72;;;;;;;8.03;57.50;100230.93;1676133;84;21213;-59
2021/05/07 02:50:25;;;;;;;9.73;4.70;;;;;;;8.03;57.30;100227.00;1763563;79;21172;-59
2021/05/07 02:52:53;;;;;;;8.33;3.95;;;;;;;8.03;57.26;100229.63;1756623;80;21584;-59
2021/05/07 02:55:21;;;;;;;8.93;4.15;;;;;;;8.03;57.19;100228.80;1762502;79;21140;-59
2021/05/07 02:57:48;;;;;;;9.83;4.53;;;;;;;8.03;57.21;100227.48;1762573;79;21166;-59
2021/05/07 03:00:19;;;;;;;6.92;3.85;;;;;;;8.03;57.36;100229.63;1730216;80;21156;-59
2021/05/07 03:02:46;;;;;;;7.25;3.95;;;;;;;8.02;57.63;100232.34;1742661;80;21192;-59
2021/05/07 03:05:15;;;;;;;7.10;3.30;;;;;;;8.02;57.73;100237.59;1669941;84;21125;-59
2021/05/07 03:07:42;;;;;;;9.30;3.87;;;;;;;8.04;57.39;100239.66;1752677;79;21169;-59
2021/05/07 03:10:10;;;;;;;6.95;3.50;;;;;;;8.04;56.80;100239.66;1675965;83;21141;-58
2021/05/07 03:12:38;;;;;;;7.25;3.80;;;;;;;8.04;56.47;100239.17;1757405;80;21208;-59
2021/05/07 03:15:07;;;;;;;9.83;3.72;;;;;;;8.05;56.01;100245.23;1680509;84;21747;-59
2021/05/07 03:17:36;;;;;;;7.40;3.50;;;;;;;8.06;55.79;100245.61;1753799;79;21140;-60
2021/05/07 03:20:06;;;;;;;6.40;3.33;;;;;;;8.08;55.75;100242.40;1761007;79;21145;-60
2021/05/07 03:22:34;;;;;;;7.90;3.27;;;;;;;8.10;55.39;100237.88;1758329;80;21212;-59
2021/05/07 03:25:01;;;;;;;8.95;3.50;;;;;;;8.14;54.77;100236.24;1743976;80;21253;-60
2021/05/07 03:27:29;;;;;;;7.37;3.75;;;;;;;8.20;54.44;100244.13;1762459;79;21169;-60
2021/05/07 03:29:56;;;;;;;9.85;3.83;;;;;;;8.26;54.05;100245.00;1763234;80;21188;-60
2021/05/07 03:32:24;;;;;;;9.48;3.40;;;;;;;8.33;53.50;100252.78;1698871;82;21609;-60
2021/05/07 03:34:53;;;;;;;6.78;3.15;;;;;;;8.39;53.29;100256.76;1759988;79;21585;-60
2021/05/07 03:37:21;;;;;;;12.30;3.47;;;;;;;8.47;53.37;100256.21;1739406;80;21162;-59
2021/05/07 03:39:48;;;;;;;6.67;3.12;;;;;;;8.56;53.51;100258.17;1702014;82;21252;-59
2021/05/07 03:42:16;;;;;;;9.08;2.98;;;;;;;8.66;53.88;100263.58;1698873;83;21478;-59
2021/05/07 03:44:44;;;;;;;6.62;3.25;;;;;;;8.76;53.92;100265.88;1765495;79;21180;-59
2021/05/07 03:47:11;;;;;;;8.30;3.27;;;;;;;8.88;54.12;100262.82;1745484;80;21162;-59
2021/05/07 03:49:39;;;;;;;8.85;3.80;;;;;;;8.97;54.16;100266.05;1697764;82;21203;-59
2021/05/07 03:52:08;;;;;;;6.87;3.20;;;;;;;9.05;54.09;100261.06;1683600;83;21203;-59
2021/05/07 03:54:35;;;;;;;7.22;3.45;;;;;;;9.14;53.59;100261.32;1759185;79;21138;-59
2021/05/07 03:57:05;;;;;;;6.60;3.25;;;;;;;9.24;53.48;100264.43;1752650;79;21761;-58
2021/05/07 03:59:32;;;;;;;8.80;3.15;;;;;;;9.32;52.94;100256.46;1752265;79;21173;-59
2021/05/07 04:02:00;;;;;;;10.13;3.25;;;;;;;9.37;52.58;100250.37;1766248;79;21374;-59
2021/05/07 04:04:28;;;;;;;8.03;2.83;;;;;;;9.42;52.08;100253.48;1686982;84;21154;-59
2021/05/07 04:06:56;;;;;;;9.88;3.85;;;;;;;9.48;51.89;100256.92;1740032;80;21181;-59
2021/05/07 04:12:13;;;;;;;7.70;3.30;;;;;;;9.67;51.83;100249.78;1810918;79;20925;-58
2021/05/07 04:14:30;;;;;;;10.50;3.05;;;;;;;9.73;51.80;100255.02;1742483;80;21163;-58
2021/05/07 04:16:57;;;;;;;8.78;3.30;;;;;;;9.79;52.15;100255.38;1756986;80;21182;-58
2021/05/07 04:19:24;;;;;;;8.03;3.10;;;;;;;9.88;52.13;100254.30;1779155;78;21134;-57
2021/05/07 04:21:52;;;;;;;6.60;2.70;;;;;;;9.95;52.05;100259.42;1787836;80;21092;-60
2021/05/07 04:24:20;;;;;;;10.20;3.33;;;;;;;10.02;51.69;100260.63;1753010;80;21132;-60
2021/05/07 04:26:48;;;;;;;6.85;2.72;;;;;;;10.07;51.37;100255.83;1783031;80;21101;-60
2021/05/07 04:29:16;;;;;;;7.65;2.85;;;;;;;10.11;50.92;100259.05;1784563;78;21210;-61
2021/05/07 04:31:43;;;;;;;6.08;2.80;;;;;;;10.12;51.16;100258.06;1747905;80;21224;-60
2021/05/07 04:34:11;;;;;;;7.78;3.00;;;;;;;10.16;51.41;100260.34;1754088;80;21080;-60
2021/05/07 04:36:38;;;;;;;8.60;3.17;;;;;;;10.21;51.53;100259.48;1776749;80;21162;-60
2021/05/07 04:39:06;;;;;;;9.00;3.70;;;;;;;10.28;51.26;100265.58;1779084;78;21119;-60
2021/05/07 04:41:36;;;;;;;7.17;3.12;;;;;;;10.34;50.86;100269.89;1782958;80;21805;-60
2021/05/07 04:44:05;;;;;;;4.62;2.47;;;;;;;10.40;49.95;100262.80;1752601;80;21781;-56
2021/05/07 04:46:32;;;;;;;6.45;3.15;;;;;;;10.45;49.76;100262.92;1778174;78;21174;-56
2021/05/07 04:49:00;;;;;;;5.20;2.80;;;;;;;10.51;49.46;100260.63;1720402;83;21184;-57
2021/05/07 04:51:27;;;;;;;7.22;2.80;;;;;;;10.59;49.52;100266.56;1681405;83;21151;-57
2021/05/07 04:53:55;;;;;;;6.58;2.80;;;;;;;10.70;49.52;100256.48;1703512;82;21198;-57
2021/05/07 04:56:22;;;;;;;7.85;3.62;;;;;;;10.83;48.81;100262.89;1721913;81;21147;-56
2021/05/07 04:58:50;;;;;;;7.67;2.85;;;;;;;10.95;48.42;100251.33;1690103;81;21574;-64
2021/05/07 05:01:17;;;;;;;7.90;3.12;;;;;;;11.07;48.36;100253.41;1728185;82;21182;-62
2021/05/07 05:03:45;;;;;;;6.65;3.15;;;;;;;11.16;48.26;100246.03;1723038;82;21124;-59
2021/05/07 05:06:13;;;;;;;7.60;3.12;;;;;;;11.25;48.49;100246.59;1730837;82;21284;-60
2021/05/07 05:08:41;;;;;;;6.97;3.30;;;;;;;11.33;48.41;100245.45;1729200;81;21139;-58
2021/05/07 05:11:08;;;;;;;8.38;3.02;;;;;;;11.41;48.40;100247.91;1692363;81;21199;-66
2021/05/07 05:13:36;;;;;;;5.40;2.52;;;;;;;11.47;48.00;100244.76;1722883;81;21190;-62
2021/05/07 05:16:04;;;;;;;6.25;2.87;;;;;;;11.54;48.50;100245.89;1694307;83;21199;-59
2021/05/07 05:18:34;;;;;;;7.45;3.05;;;;;;;11.61;48.30;100248.34;1736080;80;21187;-60
2021/05/07 05:21:03;;;;;;;7.33;3.10;;;;;;;11.65;47.95;100245.80;1770067;80;21210;-61
2021/05/07 05:23:31;;;;;;;5.78;2.98;;;;;;;11.70;48.11;100250.19;1753383;79;21131;-61
2021/05/07 05:25:59;;;;;;;5.53;2.80;;;;;;;11.76;48.02;100250.63;1777189;79;21117;-60
2021/05/07 05:28:27;;;;;;;6.78;3.02;;;;;;;11.82;48.04;100247.46;1753259;79;21143;-61
2021/05/07 05:30:55;;;;;;;9.48;3.22;;;;;;;11.87;47.93;100253.16;1748301;80;21231;-61
2021/05/07 05:33:23;;;;;;;7.80;3.00;;;;;;;11.93;48.04;100247.36;1772102;79;21239;-63
2021/05/07 05:35:51;;;;;;;7.58;2.83;;;;;;;12.01;47.84;100246.70;1763882;79;21610;-62
2021/05/07 05:38:18;;;;;;;8.48;3.05;;;;;;;12.09;47.13;100249.50;1773701;78;21119;-62
2021/05/07 05:40:47;;;;;;;5.25;2.52;;;;;;;12.21;46.34;100252.84;1800067;79;21630;-61
2021/05/07 05:43:15;;;;;;;4.80;2.08;;;;;;;12.34;46.11;100252.10;1769261;80;21134;-61
2021/05/07 05:45:42;;;;;;;6.05;2.50;;;;;;;12.50;45.35;100249.40;1776740;78;21179;-61
2021/05/07 05:48:14;;;;;;;6.67;2.70;;;;;;;12.64;45.19;100243.22;1781637;79;21192;-60
2021/05/07 05:50:43;;;;;;;3.87;1.72;;;;;;;12.79;44.65;100242.77;1739832;80;21547;-60
2021/05/07 05:53:10;;;;;;;5.20;1.60;;;;;;;12.96;42.46;100235.94;1775320;80;21125;-61
2021/05/07 05:55:38;;;;;;;4.85;1.98;;;;;;;13.14;41.88;100238.69;1780156;80;21246;-60
2021/05/07 05:58:06;;;;;;;4.05;1.60;;;;;;;13.31;42.04;100237.11;1790436;79;21144;-63
2021/05/07 06:00:34;;;;;;;7.87;1.92;;;;;;;13.50;40.21;100230.47;1755126;80;21219;-60
2021/05/07 06:03:01;;;;;;;4.62;1.62;;;;;;;13.67;39.60;100234.65;1772292;80;21254;-57
2021/05/07 06:05:29;;;;;;;5.78;1.57;;;;;;;13.84;39.56;100233.85;1773447;80;21139;-60
2021/05/07 06:07:57;;;;;;;4.78;1.60;;;;;;;14.03;38.86;100239.51;1744299;80;21987;-61
2021/05/07 06:10:26;;;;;;;6.58;1.90;;;;;;;14.21;38.25;100234.25;1765832;79;21167;-58
2021/05/07 06:12:53;;;;;;;6.92;1.98;;;;;;;14.38;37.34;100229.12;1727358;81;21189;-58
2021/05/07 06:15:21;;;;;;;7.97;1.70;;;;;;;14.55;36.34;100229.59;1764339;79;21124;-56
2021/05/07 06:17:48;;;;;;;5.75;1.50;;;;;;;14.70;36.07;100230.42;1739889;79;21642;-59
2021/05/07 06:20:17;;;;;;;4.00;1.35;;;;;;;14.83;36.72;100234.83;1749387;80;21227;-59
2021/05/07 06:22:45;;;;;;;7.53;1.65;;;;;;;14.96;36.18;100230.43;1755656;79;21148;-58
2021/05/07 06:25:17;;;;;;;4.25;1.50;;;;;;;15.09;35.89;100229.53;1752876;79;21184;-60
2021/05/07 06:27:45;;;;;;;3.75;1.60;;;;;;;15.20;34.85;100225.80;1760072;79;21572;-59
2021/05/07 06:30:15;;;;;;;4.42;1.62;;;;;;;15.33;34.95;100226.68;1741506;80;21172;-61
2021/05/07 06:32:42;;;;;;;3.75;1.45;;;;;;;15.46;34.76;100223.61;1767412;79;21358;-65
2021/05/07 06:35:12;;;;;;;5.15;1.20;;;;;;;15.58;34.39;100227.16;1759210;79;21208;-65
2021/05/07 06:37:41;;;;;;;4.50;1.10;;;;;;;15.71;33.38;100228.52;1767122;80;21179;-67
2021/05/07 06:40:11;;;;;;;3.30;1.05;;;;;;;15.81;33.68;100229.76;1740562;80;21814;-58
2021/05/07 06:42:38;;;;;;;2.70;1.02;;;;;;;15.92;33.07;100226.78;1743417;79;21210;-60
2021/05/07 06:45:09;;;;;;;3.60;1.20;;;;;;;16.04;32.53;100224.19;1753088;80;22769;-61
2021/05/07 06:47:37;;;;;;;8.40;1.52;;;;;;;16.16;33.33;100226.86;1701545;82;21197;-62
2021/05/07 06:50:07;;;;;;;3.60;1.20;;;;;;;16.33;33.31;100224.23;1767514;79;21527;-67
2021/05/07 06:52:35;;;;;;;3.98;1.07;;;;;;;16.48;32.55;100219.10;1768467;79;21615;-62
2021/05/07 06:56:38;;;;;;;4.40;0.98;;;;;;;16.75;31.68;100211.29;1877412;75;22727;-60
2021/05/07 06:59:09;;;;;;;2.17;0.80;;;;;;;16.81;31.81;100214.61;1864623;76;21022;-62
2021/05/07 07:01:37;;;;;;;4.72;1.50;;;;;;;16.93;31.82;100204.98;1858899;76;21254;-63
2021/05/07 07:04:05;;;;;;;4.60;0.85;;;;;;;17.10;31.27;100211.94;1788824;79;21552;-60
2021/05/07 07:06:34;;;;;;;2.72;1.10;;;;;;;17.20;31.03;100204.60;1787369;79;21559;-60
2021/05/07 07:09:02;;;;;;;4.40;0.93;;;;;;;17.34;31.05;100200.39;1754743;80;21139;-62
2021/05/07 07:11:32;;;;;;;3.47;1.40;;;;;;;17.48;30.35;100200.17;1778321;79;21206;-58
2021/05/07 07:14:00;;;;;;;3.58;1.45;;;;;;;17.55;30.60;100196.33;1789490;78;21218;-59
2021/05/07 07:16:28;;;;;;;4.03;1.27;;;;;;;17.64;31.75;100187.31;1797551;78;21159;-61
2021/05/07 07:18:56;;;;;;;4.78;1.10;;;;;;;17.82;32.42;100197.72;1787008;78;21574;-66
2021/05/07 07:21:23;;;;;;;3.80;1.25;;;;;;;17.98;32.09;100200.80;1765760;80;21180;-66
2021/05/07 07:23:51;;;;;;;3.17;0.93;;;;;;;18.03;32.55;100197.11;1753488;80;21206;-67
2021/05/07 07:26:21;;;;;;;4.15;1.25;;;;;;;17.99;29.94;100196.63;1788425;78;21406;-68
2021/05/07 07:28:53;;;;;;;3.70;1.10;;;;;;;17.85;30.62;100195.19;1800951;78;21163;-68
2021/05/07 07:31:21;;;;;;;3.10;0.78;;;;;;;17.78;30.26;100193.22;1796325;78;21141;-67
2021/05/07 07:33:49;;;;;;;5.35;1.10;;;;;;;17.74;30.70;100195.09;1748816;80;21583;-64
2021/05/07 07:36:16;;;;;;;2.77;1.00;;;;;;;17.70;29.75;100195.95;1793651;78;21100;-69
2021/05/07 07:38:44;;;;;;;4.80;1.20;;;;;;;17.61;29.98;100192.98;1798804;78;21135;-67
2021/05/07 07:41:11;;;;;;;3.40;0.88;;;;;;;17.51;33.16;100196.35;1798005;77;21136;-68
2021/05/07 07:43:40;;;;;;;3.62;1.10;;;;;;;17.41;30.05;100193.89;1763958;80;21156;-63
2021/05/07 07:46:09;;;;;;;7.37;1.35;;;;;;;17.31;29.92;100184.78;1778249;79;21614;-64
2021/05/07 07:48:37;;;;;;;4.15;0.80;;;;;;;17.19;30.70;100190.15;1781225;79;21104;-64
2021/05/07 07:51:06;;;;;;;3.30;0.80;;;;;;;17.07;31.37;100185.69;1776132;79;21205;-65
2021/05/07 07:53:34;;;;;;;4.20;1.15;;;;;;;16.93;31.39;100187.22;1777405;78;21132;-68
2021/05/07 07:56:02;;;;;;;3.85;1.10;;;;;;;16.83;32.99;100179.91;1777363;79;21659;-66
2021/05/07 07:58:31;;;;;;;3.02;1.10;;;;;;;16.76;33.11;100193.03;1788664;78;21139;-68
2021/05/07 08:00:58;;;;;;;2.85;0.85;;;;;;;16.70;32.41;100181.23;1772418;79;21234;-66
2021/05/07 08:03:25;;;;;;;2.50;0.72;;;;;;;16.67;33.00;100182.89;1750643;79;21135;-70
2021/05/07 08:05:53;;;;;;;3.15;0.85;;;;;;;16.66;32.24;100180.40;1784598;80;21178;-62
2021/05/07 08:08:22;;;;;;;3.77;1.20;;;;;;;16.66;32.66;100177.74;1778747;78;21133;-62
2021/05/07 08:10:50;;;;;;;3.55;1.20;;;;;;;16.67;33.92;100172.27;1800073;78;21140;-65
2021/05/07 08:13:18;;;;;;;2.33;0.82;;;;;;;16.69;32.98;100176.08;1755363;80;21592;-65
2021/05/07 08:15:47;;;;;;;2.65;0.98;;;;;;;16.74;32.28;100168.44;1778393;78;21591;-65
2021/05/07 08:18:15;;;;;;;3.87;0.82;;;;;;;16.77;32.02;100177.41;1767914;79;21227;-65
2021/05/07 08:20:43;;;;;;;5.55;1.30;;;;;;;16.82;31.57;100171.59;1767234;78;21594;-67
2021/05/07 08:23:11;;;;;;;5.37;1.17;;;;;;;16.87;31.67;100164.80;1779322;79;21246;-67
2021/05/07 08:25:38;;;;;;;2.67;0.72;;;;;;;16.95;31.46;100176.43;1775623;80;21587;-66
2021/05/07 08:28:06;;;;;;;4.05;0.62;;;;;;;16.97;31.49;100178.41;1753441;80;21225;-67
2021/05/07 08:30:37;;;;;;;2.72;0.80;;;;;;;17.00;30.65;100169.59;1783501;80;21126;-71
2021/05/07 08:33:05;;;;;;;3.52;0.60;;;;;;;17.00;30.71;100164.78;1785606;79;21197;-68
2021/05/07 08:35:35;;;;;;;3.90;0.78;;;;;;;17.00;30.93;100162.95;1779797;79;21148;-67
2021/05/07 08:38:04;;;;;;;2.25;0.60;;;;;;;17.00;30.48;100163.45;1784465;78;21218;-64
2021/05/07 08:40:32;;;;;;;3.12;0.60;;;;;;;17.00;30.71;100160.80;1780507;79;21212;-70
2021/05/07 08:43:00;;;;;;;2.58;0.90;;;;;;;17.02;30.22;100158.80;1752073;78;21191;-64
2021/05/07 08:45:28;;;;;;;2.52;0.80;;;;;;;17.02;30.75;100165.44;1778249;80;21156;-67
2021/05/07 08:47:57;;;;;;;4.72;0.80;;;;;;;17.08;30.67;100152.81;1779136;78;21115;-68
2021/05/07 08:50:25;;;;;;;2.77;0.88;;;;;;;17.06;30.36;100176.05;1801759;78;21168;-68
2021/05/07 08:52:54;;;;;;;3.72;0.90;;;;;;;17.00;30.67;100148.33;1798999;78;21363;-64
2021/05/07 08:55:21;;;;;;;3.25;0.60;;;;;;;16.99;30.43;100163.12;1754155;80;21203;-65
2021/05/07 08:57:48;;;;;;;3.08;0.88;;;;;;;16.97;30.46;100163.28;1755888;80;21212;-67
2021/05/07 09:00:17;;;;;;;2.65;0.93;;;;;;;16.96;30.95;100158.14;1762196;79;21163;-63
2021/05/07 09:02:46;;;;;;;2.37;0.60;;;;;;;16.94;31.25;100158.30;1755931;80;21139;-64
2021/05/07 09:05:13;;;;;;;2.87;0.70;;;;;;;16.97;31.59;100153.16;1784944;80;21195;-62
2021/05/07 09:07:41;;;;;;;5.62;1.00;;;;;;;17.03;31.68;100151.12;1790566;78;21442;-66
2021/05/07 09:10:12;;;;;;;3.08;0.98;;;;;;;17.08;32.02;100162.11;1789627;79;21157;-66
2021/05/07 09:12:41;;;;;;;4.87;1.50;;;;;;;17.09;32.18;100150.45;1753652;80;21659;-65
2021/05/07 09:15:11;;;;;;;6.30;1.22;;;;;;;17.13;32.52;100157.11;1791350;79;21141;-65
2021/05/07 09:17:41;;;;;;;2.85;0.70;;;;;;;17.17;32.34;100161.06;1774342;79;21227;-64
2021/05/07 09:20:13;;;;;;;3.55;1.20;;;;;;;17.21;32.73;100141.09;1758141;80;21718;-65
2021/05/07 09:22:42;;;;;;;2.95;0.93;;;;;;;17.31;32.95;100146.73;1773907;79;21163;-64
2021/05/07 09:25:16;;;;;;;2.65;0.82;;;;;;;17.40;32.24;100131.05;1766643;79;21246;-69
2021/05/07 09:27:45;;;;;;;5.33;1.02;;;;;;;17.48;32.52;100132.86;1731831;80;21223;-64
2021/05/07 09:30:24;;;;;;;2.22;0.80;;;;;;;17.58;32.94;100125.48;1767415;79;21187;-66
2021/05/07 09:32:53;;;;;;;3.90;1.20;;;;;;;17.70;32.68;100121.44;1737211;79;21183;-64
2021/05/07 09:35:27;;;;;;;3.45;0.90;;;;;;;17.83;32.57;100108.86;1769638;79;21738;-65
2021/05/07 09:38:02;;;;;;;4.53;0.72;;;;;;;17.92;31.58;100109.17;1733689;80;21151;-65
2021/05/07 09:40:30;;;;;;;2.87;0.65;;;;;;;17.94;31.25;100104.50;1765089;79;21204;-65
2021/05/07 09:43:10;;;;;;;3.33;1.00;;;;;;;17.96;31.77;100095.01;1746774;79;21228;-68
2021/05/07 09:45:40;;;;;;;1.67;0.60;;;;;;;17.99;32.21;100090.15;1757464;79;21194;-64
2021/05/07 09:48:26;;;;;;;2.87;0.50;;;;;;;18.13;32.48;100095.19;1769212;79;21203;-66
2021/05/07 09:51:01;;;;;;;2.12;0.55;;;;;;;18.26;31.95;100097.77;1762500;79;21246;-66
2021/05/07 09:53:34;;;;;;;3.40;0.75;;;;;;;18.32;31.66;100077.05;1759643;81;21198;-65
2021/05/07 09:56:16;;;;;;;2.02;0.55;;;;;;;18.38;31.61;100070.50;1770830;79;21732;-64
2021/05/07 09:58:44;;;;;;;2.85;0.70;;;;;;;18.46;31.70;100068.75;1730872;81;21139;-68
2021/05/07 10:01:12;;;;;;;1.92;0.70;;;;;;;18.59;32.30;100060.95;1771312;80;21521;-66
2021/05/07 10:03:40;;;;;;;3.92;1.07;;;;;;;18.71;31.37;100064.84;1763689;80;21127;-67
2021/05/07 10:06:08;;;;;;;2.40;0.88;;;;;;;18.82;30.55;100061.39;1758260;80;21143;-65
2021/05/07 10:08:45;;;;;;;4.25;1.00;;;;;;;18.90;31.81;100060.81;1773027;80;21805;-65
2021/05/07 10:11:14;;;;;;;2.45;0.70;;;;;;;18.96;30.46;100057.89;1777356;79;21208;-59
2021/05/07 10:13:43;;;;;;;3.25;1.10;;;;;;;19.00;31.14;100059.72;1784700;79;22191;-61
2021/05/07 10:16:11;;;;;;;2.60;0.80;;;;;;;19.03;30.49;100056.16;1749211;80;21163;-63
2021/05/07 10:18:41;;;;;;;5.92;1.12;;;;;;;19.02;30.90;100049.68;1776171;80;21216;-63
2021/05/07 10:21:14;;;;;;;2.50;0.75;;;;;;;18.97;30.26;100048.08;1729298;80;21255;-63
2021/05/07 10:23:51;;;;;;;2.17;0.65;;;;;;;18.90;30.95;100039.48;1785236;79;21647;-61
2021/05/07 10:26:19;;;;;;;4.67;1.25;;;;;;;18.88;30.42;100043.36;1767183;80;21212;-61
2021/05/07 10:28:53;;;;;;;3.17;0.85;;;;;;;18.83;30.36;100034.58;1755029;80;21181;-62
2021/05/07 10:31:21;;;;;;;2.00;0.72;;;;;;;18.83;30.30;100036.40;1774293;80;21180;-67
2021/05/07 10:33:58;;;;;;;2.30;0.70;;;;;;;18.80;30.55;100036.25;1746758;80;22164;-63
2021/05/07 10:36:41;;;;;;;3.12;0.70;;;;;;;18.82;31.21;100024.07;1744288;80;21222;-67
2021/05/07 10:39:24;;;;;;;5.92;1.07;;;;;;;18.84;30.78;100026.89;1757939;80;21361;-65
2021/05/07 10:41:54;;;;;;;3.98;1.00;;;;;;;18.81;30.12;100015.74;1764296;80;21139;-66
2021/05/07 10:44:22;;;;;;;2.65;0.90;;;;;;;18.76;30.01;100008.30;1760246;80;21633;-68
2021/05/07 10:47:09;;;;;;;4.85;0.80;;;;;;;18.73;30.47;100010.02;1773451;79;21197;-65
2021/05/07 10:49:41;;;;;;;2.47;0.65;;;;;;;18.79;31.44;99999.12;1722613;81;21186;-65
2021/05/07 10:52:11;;;;;;;2.52;0.95;;;;;;;18.91;30.63;99987.83;1773949;80;21168;-64
2021/05/07 10:54:49;;;;;;;2.80;0.85;;;;;;;19.05;30.76;99977.32;1760387;80;21218;-64
2021/05/07 10:57:20;;;;;;;2.95;0.85;;;;;;;19.18;30.05;99972.62;1802817;79;21163;-63
2021/05/07 10:59:57;;;;;;;6.40;1.22;;;;;;;19.30;30.34;99968.45;1777385;80;21327;-65
2021/05/07 11:02:25;;;;;;;2.83;0.88;;;;;;;19.44;30.20;99959.55;1778914;78;21214;-66
2021/05/07 11:04:53;;;;;;;4.03;0.90;;;;;;;19.58;30.10;99957.81;1769574;79;21214;-66
2021/05/07 11:07:32;;;;;;;4.15;1.42;;;;;;;19.69;29.71;99956.48;1741207;80;21235;-60
2021/05/07 11:10:11;;;;;;;4.05;1.12;;;;;;;19.74;28.86;99953.25;1729129;80;21559;-66
2021/05/07 11:12:44;;;;;;;2.67;1.00;;;;;;;19.73;29.29;99956.41;1738878;80;21245;-64
2021/05/07 11:15:16;;;;;;;4.35;1.12;;;;;;;19.74;28.60;99953.25;1716205;82;21207;-62
2021/05/07 11:17:44;;;;;;;3.20;0.93;;;;;;;19.71;29.06;99947.77;1775377;80;21148;-63
2021/05/07 11:20:13;;;;;;;2.77;1.00;;;;;;;19.69;29.15;99948.48;1747760;80;21175;-62
2021/05/07 11:22:41;;;;;;;2.60;1.00;;;;;;;19.65;29.20;99945.86;1784067;80;21697;-64
2021/05/07 11:25:10;;;;;;;3.08;1.00;;;;;;;19.58;28.60;99940.98;1780094;78;21717;-68
2021/05/07 11:27:38;;;;;;;4.90;0.85;;;;;;;19.47;29.35;99937.83;1748574;80;21175;-67
2021/05/07 11:30:11;;;;;;;2.65;1.10;;;;;;;19.43;29.70;99930.39;1748289;80;21544;-68
2021/05/07 11:32:37;;;;;;;2.87;0.90;;;;;;;19.43;29.99;99923.23;1742290;80;21192;-67
2021/05/07 11:35:08;;;;;;;3.42;1.00;;;;;;;19.45;29.70;99915.01;1787156;78;21184;-69
2021/05/07 11:37:38;;;;;;;2.87;0.98;;;;;;;19.47;30.11;99913.00;1753612;80;21223;-67
2021/05/07 11:40:14;;;;;;;4.25;1.20;;;;;;;19.51;30.23;99912.91;1764434;78;21631;-68
2021/05/07 11:42:44;;;;;;;3.87;0.90;;;;;;;19.56;29.90;99907.00;1769324;79;21183;-69